createdAt,value
2022-12-09T00:00:05.133Z,84
2022-12-09T00:30:19.290Z,85
2022-12-09T01:00:29.600Z,85
2022-12-09T01:30:25.872Z,85
2022-12-09T02:00:24.130Z,85
2022-12-09T02:30:29.196Z,85
2022-12-09T03:00:03.483Z,84
2022-12-09T03:30:21.222Z,83
2022-12-09T04:00:06.678Z,83
2022-12-09T04:30:10.258Z,83
2022-12-09T05:00:25.262Z,82
2022-12-09T05:30:04.145Z,82
2022-12-09T06:00:06.696Z,83
2022-12-09T06:30:07.722Z,82
2022-12-09T07:00:17.101Z,82
2022-12-09T07:30:10.981Z,81
2022-12-09T08:00:12.212Z,82
2022-12-09T08:30:26.333Z,80
2022-12-09T09:00:25.029Z,79
2022-12-09T09:30:07.571Z,79
2022-12-09T10:00:11.024Z,77
2022-12-09T10:30:12.072Z,78
2022-12-09T11:00:21.706Z,77
2022-12-09T11:30:24.950Z,77
2022-12-09T12:00:19.564Z,77
2022-12-09T12:30:20.467Z,76
2022-12-09T13:00:23.540Z,77
2022-12-09T13:30:27.100Z,76
2022-12-09T14:00:30.496Z,79
2022-12-09T14:30:21.851Z,82
2022-12-09T15:00:26.181Z,84
2022-12-09T15:30:13.246Z,84
2022-12-09T16:00:05.666Z,83
2022-12-09T16:30:07.629Z,85
2022-12-09T17:00:10.972Z,85
2022-12-09T17:30:28.260Z,85
2022-12-09T18:00:26.106Z,85
2022-12-09T18:30:06.731Z,85
2022-12-09T19:00:16.045Z,85
2022-12-09T19:30:16.373Z,85
2022-12-09T20:00:22.420Z,84
2022-12-09T20:30:14.382Z,85
2022-12-09T21:00:10.450Z,85
2022-12-09T21:30:14.289Z,85
2022-12-09T22:00:02.006Z,85
2022-12-09T22:30:10.179Z,86
2022-12-09T23:00:14.811Z,87
2022-12-09T23:30:08.168Z,87
